Terminal Aerodrome Forecast
Issued by NWS

Home | Current Version | Previous Version | Text Only | Print | Product List | Glossary On
Versions: 1 2 3 4 5 6 7 8 9 10 11 12 13 14 15 16 17 18 19 20 21 22 23 24
000
FTUS43 KDLH 191700
TAFHIB
TAF
KHIB 191731Z 1918/2018 19010G20KT P6SM VCSH OVC012
      TEMPO 1919/1922 3SM -TSRA OVC008CB
     FM192200 20010KT P6SM BKN018 OVC100
     FM200300 VRB04KT 5SM BR VCSH SCT015 BKN050
      TEMPO 2003/2006 4SM TSRA BKN015CB OVC050
     FM200800 30007KT 6SM BR BKN012 BKN040
     FM201600 30008KT P6SM SCT015=

USA.gov is the U.S. government's official web portal to all federal, state and local government web resources and services.